sensor_id;sensor_type;location;lat;lon;timestamp;pressure;altitude;pressure_sealevel;temperature;humidity
22311;BME280;11323;49.610;11.016;2023-12-22T00:00:08;96537.25;;;6.43;80.07
22311;BME280;11323;49.610;11.016;2023-12-22T00:05:09;96545.22;;;6.43;80.42
22311;BME280;11323;49.610;11.016;2023-12-22T00:10:10;96554.75;;;6.38;79.90
22311;BME280;11323;49.610;11.016;2023-12-22T00:15:13;96556.38;;;6.45;80.32
22311;BME280;11323;49.610;11.016;2023-12-22T00:20:14;96564.91;;;6.47;79.82
22311;BME280;11323;49.610;11.016;2023-12-22T00:25:15;96543.63;;;6.47;79.97
22311;BME280;11323;49.610;11.016;2023-12-22T00:30:16;96552.66;;;6.41;80.11
22311;BME280;11323;49.610;11.016;2023-12-22T00:35:20;96566.44;;;6.37;79.88
22311;BME280;11323;49.610;11.016;2023-12-22T00:40:21;96559.81;;;6.40;79.60
22311;BME280;11323;49.610;11.016;2023-12-22T00:45:21;96574.97;;;6.39;79.80
22311;BME280;11323;49.610;11.016;2023-12-22T00:50:25;96571.75;;;6.37;79.83
22311;BME280;11323;49.610;11.016;2023-12-22T00:55:29;96576.59;;;6.41;79.85
22311;BME280;11323;49.610;11.016;2023-12-22T01:00:30;96584.81;;;6.39;79.41
22311;BME280;11323;49.610;11.016;2023-12-22T01:05:34;96587.22;;;6.41;79.63
22311;BME280;11323;49.610;11.016;2023-12-22T01:10:35;96589.63;;;6.42;79.06
22311;BME280;11323;49.610;11.016;2023-12-22T01:15:36;96585.16;;;6.48;79.61
22311;BME280;11323;49.610;11.016;2023-12-22T01:20:37;96577.66;;;6.45;79.50
22311;BME280;11323;49.610;11.016;2023-12-22T01:25:38;96587.25;;;6.46;79.26
22311;BME280;11323;49.610;11.016;2023-12-22T01:30:41;96605.38;;;6.49;79.17
22311;BME280;11323;49.610;11.016;2023-12-22T01:35:44;96613.34;;;6.49;79.33
22311;BME280;11323;49.610;11.016;2023-12-22T01:40:45;96621.31;;;6.49;79.10
22311;BME280;11323;49.610;11.016;2023-12-22T01:45:52;96627.06;;;6.35;79.13
22311;BME280;11323;49.610;11.016;2023-12-22T01:50:56;96617.44;;;6.29;79.22
22311;BME280;11323;49.610;11.016;2023-12-22T01:56:00;96614.31;;;6.37;79.11
22311;BME280;11323;49.610;11.016;2023-12-22T02:01:02;96581.41;;;6.44;78.87
22311;BME280;11323;49.610;11.016;2023-12-22T02:06:05;96597.34;;;6.44;79.45
22311;BME280;11323;49.610;11.016;2023-12-22T02:11:09;96611.72;;;6.43;78.92
22311;BME280;11323;49.610;11.016;2023-12-22T02:16:39;96617.53;;;6.39;79.00
22311;BME280;11323;49.610;11.016;2023-12-22T02:22:05;96590.97;;;6.45;79.39
22311;BME280;11323;49.610;11.016;2023-12-22T02:32:35;96592.56;;;6.41;79.16
22311;BME280;11323;49.610;11.016;2023-12-22T02:37:41;96608.00;;;6.44;79.17
22311;BME280;11323;49.610;11.016;2023-12-22T02:42:45;96606.06;;;6.39;78.83
22311;BME280;11323;49.610;11.016;2023-12-22T02:47:52;96613.31;;;6.44;78.62
22311;BME280;11323;49.610;11.016;2023-12-22T02:52:56;96598.41;;;6.43;79.14
22311;BME280;11323;49.610;11.016;2023-12-22T02:57:57;96592.56;;;6.41;78.57
22311;BME280;11323;49.610;11.016;2023-12-22T03:02:57;96605.22;;;6.33;78.40
22311;BME280;11323;49.610;11.016;2023-12-22T03:07:58;96620.16;;;6.34;78.71
22311;BME280;11323;49.610;11.016;2023-12-22T03:12:59;96638.25;;;6.37;78.43
22311;BME280;11323;49.610;11.016;2023-12-22T03:18:00;96631.56;;;6.35;78.43
22311;BME280;11323;49.610;11.016;2023-12-22T03:23:01;96632.63;;;6.34;78.25
22311;BME280;11323;49.610;11.016;2023-12-22T03:28:01;96615.75;;;6.23;78.49
22311;BME280;11323;49.610;11.016;2023-12-22T03:33:03;96621.97;;;6.29;78.42
22311;BME280;11323;49.610;11.016;2023-12-22T03:38:04;96623.25;;;6.26;79.00
22311;BME280;11323;49.610;11.016;2023-12-22T03:43:07;96632.91;;;6.32;78.54
22311;BME280;11323;49.610;11.016;2023-12-22T03:48:08;96614.56;;;6.36;78.35
22311;BME280;11323;49.610;11.016;2023-12-22T03:53:09;96620.63;;;6.31;77.98
22311;BME280;11323;49.610;11.016;2023-12-22T03:58:09;96616.94;;;6.32;77.98
22311;BME280;11323;49.610;11.016;2023-12-22T04:03:11;96599.38;;;6.31;78.37
22311;BME280;11323;49.610;11.016;2023-12-22T04:08:11;96603.56;;;6.27;77.77
22311;BME280;11323;49.610;11.016;2023-12-22T04:13:12;96613.19;;;6.28;78.22
22311;BME280;11323;49.610;11.016;2023-12-22T04:18:13;96612.31;;;6.23;78.00
22311;BME280;11323;49.610;11.016;2023-12-22T04:23:17;96636.47;;;6.21;77.69
22311;BME280;11323;49.610;11.016;2023-12-22T04:28:18;96637.00;;;6.18;78.09
22311;BME280;11323;49.610;11.016;2023-12-22T04:33:19;96641.81;;;6.21;78.06
22311;BME280;11323;49.610;11.016;2023-12-22T04:38:20;96645.97;;;6.12;77.44
22311;BME280;11323;49.610;11.016;2023-12-22T04:43:21;96649.91;;;6.10;77.60
22311;BME280;11323;49.610;11.016;2023-12-22T04:48:24;96652.34;;;6.11;77.79
22311;BME280;11323;49.610;11.016;2023-12-22T04:53:25;96642.72;;;6.05;78.29
22311;BME280;11323;49.610;11.016;2023-12-22T04:58:29;96672.50;;;6.07;77.71
22311;BME280;11323;49.610;11.016;2023-12-22T05:03:30;96671.13;;;6.05;77.74
22311;BME280;11323;49.610;11.016;2023-12-22T05:08:31;96674.53;;;6.00;77.66
22311;BME280;11323;49.610;11.016;2023-12-22T05:13:31;96680.91;;;5.99;77.80
22311;BME280;11323;49.610;11.016;2023-12-22T05:18:32;96681.38;;;5.96;77.71
22311;BME280;11323;49.610;11.016;2023-12-22T05:23:33;96700.56;;;5.98;77.79
22311;BME280;11323;49.610;11.016;2023-12-22T05:28:37;96699.00;;;6.02;77.83
22311;BME280;11323;49.610;11.016;2023-12-22T05:33:37;96688.94;;;6.04;77.35
22311;BME280;11323;49.610;11.016;2023-12-22T05:38:39;96710.19;;;6.04;77.68
22311;BME280;11323;49.610;11.016;2023-12-22T05:43:40;96707.06;;;6.07;77.75
22311;BME280;11323;49.610;11.016;2023-12-22T05:48:44;96688.94;;;6.04;77.59
22311;BME280;11323;49.610;11.016;2023-12-22T05:53:44;96713.97;;;6.08;77.24
22311;BME280;11323;49.610;11.016;2023-12-22T05:58:52;96700.88;;;6.02;77.00
22311;BME280;11323;49.610;11.016;2023-12-22T06:03:52;96693.09;;;5.95;77.25
22311;BME280;11323;49.610;11.016;2023-12-22T06:08:56;96690.59;;;5.89;77.58
22311;BME280;11323;49.610;11.016;2023-12-22T06:14:00;96690.91;;;5.92;77.06
22311;BME280;11323;49.610;11.016;2023-12-22T06:19:03;96694.63;;;5.91;77.31
22311;BME280;11323;49.610;11.016;2023-12-22T06:24:04;96710.91;;;5.78;77.00
22311;BME280;11323;49.610;11.016;2023-12-22T06:29:05;96717.56;;;5.81;77.05
22311;BME280;11323;49.610;11.016;2023-12-22T06:34:06;96722.66;;;5.82;77.24
22311;BME280;11323;49.610;11.016;2023-12-22T06:39:08;96710.59;;;5.75;77.22
22311;BME280;11323;49.610;11.016;2023-12-22T06:44:08;96739.19;;;5.84;77.28
22311;BME280;11323;49.610;11.016;2023-12-22T06:49:17;96742.00;;;5.78;77.24
22311;BME280;11323;49.610;11.016;2023-12-22T06:54:34;96753.13;;;5.75;77.66
22311;BME280;11323;49.610;11.016;2023-12-22T06:59:42;96752.31;;;5.74;77.10
22311;BME280;11323;49.610;11.016;2023-12-22T07:10:32;96757.81;;;5.84;77.22
22311;BME280;11323;49.610;11.016;2023-12-22T07:15:42;96734.44;;;5.86;77.35
22311;BME280;11323;49.610;11.016;2023-12-22T07:20:46;96737.97;;;5.75;77.46
22311;BME280;11323;49.610;11.016;2023-12-22T07:25:55;96757.94;;;5.78;77.43
22311;BME280;11323;49.610;11.016;2023-12-22T07:30:56;96776.16;;;5.86;77.62
22311;BME280;11323;49.610;11.016;2023-12-22T07:36:00;96780.75;;;5.90;77.39
22311;BME280;11323;49.610;11.016;2023-12-22T07:41:01;96806.88;;;5.98;77.45
22311;BME280;11323;49.610;11.016;2023-12-22T07:46:02;96791.00;;;6.03;77.52
22311;BME280;11323;49.610;11.016;2023-12-22T07:51:06;96803.34;;;6.09;77.42
22311;BME280;11323;49.610;11.016;2023-12-22T07:56:28;96806.22;;;6.08;77.49
22311;BME280;11323;49.610;11.016;2023-12-22T08:01:52;96810.09;;;6.00;77.74
22311;BME280;11323;49.610;11.016;2023-12-22T08:06:53;96824.59;;;6.09;77.47
22311;BME280;11323;49.610;11.016;2023-12-22T08:12:10;96838.50;;;6.16;77.48
22311;BME280;11323;49.610;11.016;2023-12-22T08:17:29;96841.78;;;6.23;77.69
22311;BME280;11323;49.610;11.016;2023-12-22T08:22:43;96844.53;;;6.28;77.69
22311;BME280;11323;49.610;11.016;2023-12-22T08:27:47;96861.09;;;6.35;77.80
22311;BME280;11323;49.610;11.016;2023-12-22T08:32:47;96852.09;;;6.36;77.25
22311;BME280;11323;49.610;11.016;2023-12-22T08:37:48;96875.06;;;6.43;77.41
22311;BME280;11323;49.610;11.016;2023-12-22T08:42:49;96868.91;;;6.42;77.56
22311;BME280;11323;49.610;11.016;2023-12-22T08:47:50;96865.94;;;6.38;77.63
22311;BME280;11323;49.610;11.016;2023-12-22T08:52:51;96863.66;;;6.47;77.34
22311;BME280;11323;49.610;11.016;2023-12-22T08:57:54;96895.31;;;6.49;77.29
22311;BME280;11323;49.610;11.016;2023-12-22T09:02:55;96886.31;;;6.50;77.21
22311;BME280;11323;49.610;11.016;2023-12-22T09:07:55;96887.34;;;6.49;77.98
22311;BME280;11323;49.610;11.016;2023-12-22T09:12:56;96893.78;;;6.53;77.38
22311;BME280;11323;49.610;11.016;2023-12-22T09:17:57;96886.66;;;6.58;77.96
22311;BME280;11323;49.610;11.016;2023-12-22T09:22:58;96901.91;;;6.63;78.13
22311;BME280;11323;49.610;11.016;2023-12-22T09:27:58;96897.66;;;6.62;77.74
22311;BME280;11323;49.610;11.016;2023-12-22T09:33:04;96887.22;;;6.60;78.00
22311;BME280;11323;49.610;11.016;2023-12-22T09:38:08;96874.25;;;6.64;77.50
22311;BME280;11323;49.610;11.016;2023-12-22T09:43:25;96887.31;;;6.65;77.53
22311;BME280;11323;49.610;11.016;2023-12-22T09:48:33;96886.03;;;6.68;77.82
22311;BME280;11323;49.610;11.016;2023-12-22T09:53:51;96875.38;;;6.68;77.70
22311;BME280;11323;49.610;11.016;2023-12-22T09:59:05;96877.41;;;6.61;77.92
22311;BME280;11323;49.610;11.016;2023-12-22T10:04:09;96873.63;;;6.57;78.29
22311;BME280;11323;49.610;11.016;2023-12-22T10:10:01;96853.81;;;6.48;77.94
22311;BME280;11323;49.610;11.016;2023-12-22T10:15:15;96854.97;;;6.35;78.23
22311;BME280;11323;49.610;11.016;2023-12-22T10:20:23;96858.44;;;6.35;78.57
22311;BME280;11323;49.610;11.016;2023-12-22T10:25:56;96844.13;;;6.36;78.40
22311;BME280;11323;49.610;11.016;2023-12-22T10:31:17;96848.88;;;6.34;78.53
22311;BME280;11323;49.610;11.016;2023-12-22T10:36:32;96835.16;;;6.43;78.70
22311;BME280;11323;49.610;11.016;2023-12-22T10:41:36;96829.63;;;6.49;78.51
22311;BME280;11323;49.610;11.016;2023-12-22T10:46:44;96815.59;;;6.54;78.31
22311;BME280;11323;49.610;11.016;2023-12-22T10:52:18;96793.81;;;6.57;78.28
22311;BME280;11323;49.610;11.016;2023-12-22T10:57:31;96800.25;;;6.61;78.58
22311;BME280;11323;49.610;11.016;2023-12-22T11:02:44;96806.66;;;6.65;78.50
22311;BME280;11323;49.610;11.016;2023-12-22T11:07:55;96795.53;;;6.68;78.22
22311;BME280;11323;49.610;11.016;2023-12-22T11:13:08;96806.19;;;6.68;78.52
22311;BME280;11323;49.610;11.016;2023-12-22T11:18:17;96795.03;;;6.71;78.66
22311;BME280;11323;49.610;11.016;2023-12-22T11:23:25;96774.84;;;6.75;78.55
22311;BME280;11323;49.610;11.016;2023-12-22T11:28:33;96776.97;;;6.73;78.12
22311;BME280;11323;49.610;11.016;2023-12-22T11:33:36;96761.59;;;6.80;78.34
22311;BME280;11323;49.610;11.016;2023-12-22T11:38:40;96750.47;;;6.83;78.67
22311;BME280;11323;49.610;11.016;2023-12-22T11:43:42;96744.63;;;6.86;78.68
22311;BME280;11323;49.610;11.016;2023-12-22T11:48:55;96742.78;;;6.86;78.68
22311;BME280;11323;49.610;11.016;2023-12-22T11:53:57;96737.63;;;6.80;78.80
22311;BME280;11323;49.610;11.016;2023-12-22T11:58:59;96720.72;;;6.91;78.68
22311;BME280;11323;49.610;11.016;2023-12-22T12:04:03;96717.81;;;6.92;78.61
22311;BME280;11323;49.610;11.016;2023-12-22T12:09:07;96709.56;;;6.94;78.48
22311;BME280;11323;49.610;11.016;2023-12-22T12:14:14;96686.66;;;6.93;78.55
22311;BME280;11323;49.610;11.016;2023-12-22T12:19:15;96678.16;;;6.96;78.64
22311;BME280;11323;49.610;11.016;2023-12-22T12:24:17;96660.06;;;6.98;78.91
22311;BME280;11323;49.610;11.016;2023-12-22T12:29:18;96658.25;;;7.03;78.89
22311;BME280;11323;49.610;11.016;2023-12-22T12:34:23;96649.53;;;7.13;78.67
22311;BME280;11323;49.610;11.016;2023-12-22T12:39:25;96643.44;;;7.17;78.96
22311;BME280;11323;49.610;11.016;2023-12-22T12:44:30;96609.66;;;7.18;78.81
22311;BME280;11323;49.610;11.016;2023-12-22T12:49:33;96595.53;;;7.22;78.91
22311;BME280;11323;49.610;11.016;2023-12-22T12:54:34;96594.78;;;7.27;78.74
22311;BME280;11323;49.610;11.016;2023-12-22T12:59:35;96578.03;;;7.32;78.32
22311;BME280;11323;49.610;11.016;2023-12-22T13:04:39;96583.09;;;7.33;78.34
22311;BME280;11323;49.610;11.016;2023-12-22T13:09:41;96575.91;;;7.34;78.41
22311;BME280;11323;49.610;11.016;2023-12-22T13:14:44;96575.66;;;7.40;78.42
22311;BME280;11323;49.610;11.016;2023-12-22T13:19:53;96585.28;;;7.41;78.96
22311;BME280;11323;49.610;11.016;2023-12-22T13:24:56;96597.50;;;7.42;78.66
22311;BME280;11323;49.610;11.016;2023-12-22T13:29:58;96571.41;;;7.44;79.34
22311;BME280;11323;49.610;11.016;2023-12-22T13:34:59;96567.72;;;7.45;78.63
22311;BME280;11323;49.610;11.016;2023-12-22T13:40:00;96563.44;;;7.49;78.62
22311;BME280;11323;49.610;11.016;2023-12-22T13:45:05;96556.78;;;7.52;78.58
22311;BME280;11323;49.610;11.016;2023-12-22T13:50:15;96553.34;;;7.56;78.73
22311;BME280;11323;49.610;11.016;2023-12-22T13:55:18;96560.81;;;7.59;79.03
22311;BME280;11323;49.610;11.016;2023-12-22T14:05:26;96567.25;;;7.68;78.84
22311;BME280;11323;49.610;11.016;2023-12-22T14:10:29;96568.03;;;7.69;78.70
22311;BME280;11323;49.610;11.016;2023-12-22T14:15:30;96560.88;;;7.74;79.10
22311;BME280;11323;49.610;11.016;2023-12-22T14:20:31;96571.03;;;7.77;78.68
22311;BME280;11323;49.610;11.016;2023-12-22T14:25:32;96569.41;;;7.76;79.23
22311;BME280;11323;49.610;11.016;2023-12-22T14:30:33;96565.16;;;7.80;78.65
22311;BME280;11323;49.610;11.016;2023-12-22T14:35:56;96565.97;;;7.81;79.54
22311;BME280;11323;49.610;11.016;2023-12-22T14:40:57;96579.56;;;7.79;79.21
22311;BME280;11323;49.610;11.016;2023-12-22T14:46:02;96586.47;;;7.80;78.76
22311;BME280;11323;49.610;11.016;2023-12-22T14:51:24;96601.97;;;7.83;79.03
22311;BME280;11323;49.610;11.016;2023-12-22T14:56:32;96608.88;;;7.79;79.19
22311;BME280;11323;49.610;11.016;2023-12-22T15:01:38;96616.94;;;7.89;79.09
22311;BME280;11323;49.610;11.016;2023-12-22T15:07:01;96587.03;;;7.82;79.08
22311;BME280;11323;49.610;11.016;2023-12-22T15:12:19;96604.09;;;7.86;79.13
22311;BME280;11323;49.610;11.016;2023-12-22T15:17:29;96596.38;;;7.85;78.67
22311;BME280;11323;49.610;11.016;2023-12-22T15:22:30;96613.72;;;7.92;78.99
22311;BME280;11323;49.610;11.016;2023-12-22T15:27:32;96621.22;;;7.95;79.15
22311;BME280;11323;49.610;11.016;2023-12-22T15:32:33;96613.75;;;7.97;78.72
22311;BME280;11323;49.610;11.016;2023-12-22T15:37:50;96634.56;;;8.00;78.74
22311;BME280;11323;49.610;11.016;2023-12-22T15:43:23;96622.81;;;7.96;79.47
22311;BME280;11323;49.610;11.016;2023-12-22T15:49:36;96631.34;;;7.98;78.67
22311;BME280;11323;49.610;11.016;2023-12-22T15:55:23;96630.84;;;8.06;78.43
22311;BME280;11323;49.610;11.016;2023-12-22T16:01:12;96616.44;;;8.02;78.67
22311;BME280;11323;49.610;11.016;2023-12-22T16:06:42;96628.44;;;8.10;78.42
22311;BME280;11323;49.610;11.016;2023-12-22T16:11:42;96633.00;;;8.14;79.15
22311;BME280;11323;49.610;11.016;2023-12-22T16:16:43;96620.75;;;8.18;78.67
22311;BME280;11323;49.610;11.016;2023-12-22T16:21:44;96627.66;;;8.19;78.98
22311;BME280;11323;49.610;11.016;2023-12-22T16:26:47;96634.09;;;8.23;78.53
22311;BME280;11323;49.610;11.016;2023-12-22T16:31:49;96629.31;;;8.26;78.14
22311;BME280;11323;49.610;11.016;2023-12-22T16:36:50;96619.19;;;8.28;78.73
22311;BME280;11323;49.610;11.016;2023-12-22T16:41:51;96610.09;;;8.29;78.64
22311;BME280;11323;49.610;11.016;2023-12-22T16:46:52;96619.69;;;8.25;78.87
22311;BME280;11323;49.610;11.016;2023-12-22T16:51:53;96642.66;;;8.26;78.80
22311;BME280;11323;49.610;11.016;2023-12-22T16:56:54;96625.56;;;8.27;78.58
22311;BME280;11323;49.610;11.016;2023-12-22T17:01:54;96635.72;;;8.25;78.82
22311;BME280;11323;49.610;11.016;2023-12-22T17:06:55;96648.81;;;8.26;79.17
22311;BME280;11323;49.610;11.016;2023-12-22T17:11:58;96655.47;;;8.29;78.85
22311;BME280;11323;49.610;11.016;2023-12-22T17:16:59;96648.53;;;8.33;78.87
22311;BME280;11323;49.610;11.016;2023-12-22T17:22:04;96646.41;;;8.35;78.59
22311;BME280;11323;49.610;11.016;2023-12-22T17:27:05;96654.97;;;8.37;78.81
22311;BME280;11323;49.610;11.016;2023-12-22T17:32:06;96645.91;;;8.38;79.00
22311;BME280;11323;49.610;11.016;2023-12-22T17:37:11;96646.16;;;8.41;78.89
22311;BME280;11323;49.610;11.016;2023-12-22T17:42:12;96664.56;;;8.43;78.77
22311;BME280;11323;49.610;11.016;2023-12-22T17:47:13;96655.53;;;8.44;78.72
22311;BME280;11323;49.610;11.016;2023-12-22T17:52:14;96667.53;;;8.46;78.67
22311;BME280;11323;49.610;11.016;2023-12-22T17:57:15;96661.94;;;8.48;79.18
22311;BME280;11323;49.610;11.016;2023-12-22T18:02:16;96679.00;;;8.52;79.01
22311;BME280;11323;49.610;11.016;2023-12-22T18:07:18;96663.00;;;8.52;78.78
22311;BME280;11323;49.610;11.016;2023-12-22T18:12:19;96671.81;;;8.47;79.25
22311;BME280;11323;49.610;11.016;2023-12-22T18:17:20;96669.41;;;8.51;79.14
22311;BME280;11323;49.610;11.016;2023-12-22T18:22:22;96664.84;;;8.46;79.22
22311;BME280;11323;49.610;11.016;2023-12-22T18:27:23;96681.13;;;8.50;79.17
22311;BME280;11323;49.610;11.016;2023-12-22T18:32:26;96673.16;;;8.55;78.68
22311;BME280;11323;49.610;11.016;2023-12-22T18:37:27;96721.19;;;8.55;78.59
22311;BME280;11323;49.610;11.016;2023-12-22T18:42:28;96711.34;;;8.55;78.63
22311;BME280;11323;49.610;11.016;2023-12-22T18:47:28;96699.03;;;8.54;79.19
22311;BME280;11323;49.610;11.016;2023-12-22T18:52:32;96693.97;;;8.58;79.32
22311;BME280;11323;49.610;11.016;2023-12-22T18:57:33;96674.22;;;8.59;78.82
22311;BME280;11323;49.610;11.016;2023-12-22T19:02:36;96680.38;;;8.59;79.29
22311;BME280;11323;49.610;11.016;2023-12-22T19:07:44;96690.50;;;8.62;79.33
22311;BME280;11323;49.610;11.016;2023-12-22T19:12:45;96682.25;;;8.64;78.39
22311;BME280;11323;49.610;11.016;2023-12-22T19:17:52;96708.41;;;8.67;78.83
22311;BME280;11323;49.610;11.016;2023-12-22T19:22:53;96727.34;;;8.65;78.84
22311;BME280;11323;49.610;11.016;2023-12-22T19:27:56;96719.09;;;8.67;79.11
22311;BME280;11323;49.610;11.016;2023-12-22T19:32:57;96699.59;;;8.71;78.25
22311;BME280;11323;49.610;11.016;2023-12-22T19:38:26;96711.88;;;8.67;79.26
22311;BME280;11323;49.610;11.016;2023-12-22T19:43:46;96729.78;;;8.67;78.23
22311;BME280;11323;49.610;11.016;2023-12-22T19:48:47;96750.56;;;8.60;78.71
22311;BME280;11323;49.610;11.016;2023-12-22T19:53:47;96750.81;;;8.53;78.81
22311;BME280;11323;49.610;11.016;2023-12-22T19:58:48;96754.25;;;8.49;79.16
22311;BME280;11323;49.610;11.016;2023-12-22T20:03:51;96774.53;;;8.50;79.11
22311;BME280;11323;49.610;11.016;2023-12-22T20:08:52;96750.56;;;8.55;79.21
22311;BME280;11323;49.610;11.016;2023-12-22T20:13:56;96768.44;;;8.54;79.79
22311;BME280;11323;49.610;11.016;2023-12-22T20:18:59;96763.91;;;8.55;79.00
22311;BME280;11323;49.610;11.016;2023-12-22T20:24:01;96775.66;;;8.59;79.57
22311;BME280;11323;49.610;11.016;2023-12-22T20:29:02;96765.75;;;8.49;79.28
22311;BME280;11323;49.610;11.016;2023-12-22T20:34:03;96774.56;;;8.55;79.98
22311;BME280;11323;49.610;11.016;2023-12-22T20:39:04;96775.66;;;8.59;79.38
22311;BME280;11323;49.610;11.016;2023-12-22T20:44:09;96794.34;;;8.59;79.32
22311;BME280;11323;49.610;11.016;2023-12-22T20:49:13;96777.25;;;8.60;79.23
22311;BME280;11323;49.610;11.016;2023-12-22T20:54:16;96776.72;;;8.58;79.11
22311;BME280;11323;49.610;11.016;2023-12-22T20:59:20;96766.53;;;8.50;79.37
22311;BME280;11323;49.610;11.016;2023-12-22T21:04:21;96777.78;;;8.57;79.26
22311;BME280;11323;49.610;11.016;2023-12-22T21:09:22;96776.75;;;8.63;79.34
22311;BME280;11323;49.610;11.016;2023-12-22T21:14:29;96791.72;;;8.69;79.00
22311;BME280;11323;49.610;11.016;2023-12-22T21:19:32;96799.19;;;8.72;78.98
22311;BME280;11323;49.610;11.016;2023-12-22T21:24:36;96795.19;;;8.74;79.09
22311;BME280;11323;49.610;11.016;2023-12-22T21:29:38;96808.00;;;8.77;78.83
22311;BME280;11323;49.610;11.016;2023-12-22T21:34:40;96792.25;;;8.76;78.01
22311;BME280;11323;49.610;11.016;2023-12-22T21:39:40;96805.06;;;8.74;78.79
22311;BME280;11323;49.610;11.016;2023-12-22T21:44:42;96820.56;;;8.77;78.89
22311;BME280;11323;49.610;11.016;2023-12-22T21:49:49;96820.31;;;8.78;78.38
22311;BME280;11323;49.610;11.016;2023-12-22T21:54:53;96796.00;;;8.75;78.01
22311;BME280;11323;49.610;11.016;2023-12-22T21:59:56;96815.47;;;8.75;78.67
22311;BME280;11323;49.610;11.016;2023-12-22T22:04:57;96810.13;;;8.70;78.92
22311;BME280;11323;49.610;11.016;2023-12-22T22:10:03;96793.84;;;8.72;79.03
22311;BME280;11323;49.610;11.016;2023-12-22T22:15:04;96810.41;;;8.74;79.14
22311;BME280;11323;49.610;11.016;2023-12-22T22:20:06;96815.97;;;8.67;78.91
22311;BME280;11323;49.610;11.016;2023-12-22T22:25:09;96820.00;;;8.70;78.59
22311;BME280;11323;49.610;11.016;2023-12-22T22:30:10;96838.16;;;8.68;78.86
22311;BME280;11323;49.610;11.016;2023-12-22T22:35:11;96845.13;;;8.69;78.74
22311;BME280;11323;49.610;11.016;2023-12-22T22:40:12;96855.75;;;8.59;78.79
22311;BME280;11323;49.610;11.016;2023-12-22T22:45:13;96855.22;;;8.62;79.42
22311;BME280;11323;49.610;11.016;2023-12-22T22:50:14;96872.31;;;8.66;79.50
22311;BME280;11323;49.610;11.016;2023-12-22T22:55:15;96877.63;;;8.61;79.49
22311;BME280;11323;49.610;11.016;2023-12-22T23:00:16;96884.84;;;8.60;79.60
22311;BME280;11323;49.610;11.016;2023-12-22T23:05:28;96892.59;;;8.62;79.19
22311;BME280;11323;49.610;11.016;2023-12-22T23:10:33;96886.97;;;8.58;78.99
22311;BME280;11323;49.610;11.016;2023-12-22T23:15:34;96898.44;;;8.59;79.24
22311;BME280;11323;49.610;11.016;2023-12-22T23:20:35;96886.16;;;8.58;79.38
22311;BME280;11323;49.610;11.016;2023-12-22T23:25:36;96886.97;;;8.58;79.00
22311;BME280;11323;49.610;11.016;2023-12-22T23:30:36;96890.44;;;8.59;79.54
22311;BME280;11323;49.610;11.016;2023-12-22T23:35:37;96914.47;;;8.64;79.57
22311;BME280;11323;49.610;11.016;2023-12-22T23:40:38;96967.31;;;8.62;79.63
22311;BME280;11323;49.610;11.016;2023-12-22T23:45:39;96971.03;;;8.56;79.62
22311;BME280;11323;49.610;11.016;2023-12-22T23:50:40;96982.19;;;8.48;79.54
22311;BME280;11323;49.610;11.016;2023-12-22T23:55:41;96989.34;;;8.42;79.28
